»·PEaware :: N2ME KBFL-KSNA

N2ME :: KBFL-KSNA

FLIGHT INFORMATION

Flight Status: Arrived
Operator: Privately registered:
United States
More flights under this callsign
Pilot: Drew L. (13237)
Aircraft: Unknown
(P28U)
More flights by this aircraft type
Origin: KBFL Meadows
United States
Destination: KSNA John Wayne-Orange Co
United States
More flights between these airports :: More routes between these airports
Route: +
File this flight plan on PilotEdge
Remarks:
Altitude:
(Current/Filed)
0ft
Speed:
(Current/Filed)
0kts
Departed: 07-Jan-18 07:32 PM
Arrived: 07-Jan-18 08:29 PM
Distance/Time
Traveled:
121nm/0:56
Distance/Time
To Go:
Arrived

Flight Plot

Page will automatically refresh every two minutes.

Flight plan parsing failed; only flown route is shown


Map Options




Map Legend


Flown Route
Filed Route
Departure Airport
Arrival Airport
Navaid (VOR, NDB)
Fix

Horizontal Profiles

Position Reports

Time Latitude Longitude Heading Altitude Ground
Speed
07-Jan-18 19:37 35.200692 -118.917832 142 4694ft 133kts
07-Jan-18 19:38 35.171406 -118.890880 142 4899ft 133kts
07-Jan-18 19:39 35.140779 -118.873835 160 5029ft 136kts
07-Jan-18 19:40 35.105891 -118.859172 160 5257ft 134kts
07-Jan-18 19:41 35.077950 -118.847701 160 5635ft 127kts
07-Jan-18 19:42 35.046513 -118.834972 160 6239ft 108kts
07-Jan-18 19:43 35.017908 -118.822573 160 6970ft 112kts
07-Jan-18 19:44 34.989168 -118.809213 160 7922ft 114kts
07-Jan-18 19:45 34.957270 -118.793648 160 8154ft 153kts
07-Jan-18 19:46 34.915313 -118.774174 160 7491ft 152kts
07-Jan-18 19:47 34.882674 -118.759077 160 7638ft 141kts
07-Jan-18 19:48 34.845451 -118.741959 160 7455ft 151kts
07-Jan-18 19:49 34.806833 -118.724473 160 7452ft 148kts
07-Jan-18 19:50 34.769029 -118.703205 145 7617ft 152kts
07-Jan-18 19:51 34.733512 -118.673046 145 7713ft 161kts
07-Jan-18 19:52 34.698660 -118.642620 145 7699ft 162kts
07-Jan-18 19:53 34.662720 -118.610352 145 7679ft 160kts
07-Jan-18 19:54 34.628795 -118.576640 115 7649ft 161kts
07-Jan-18 19:55 34.621638 -118.523133 99 7659ft 160kts
07-Jan-18 19:56 34.615336 -118.470174 99 7667ft 161kts
07-Jan-18 19:57 34.608935 -118.417479 99 7675ft 161kts
07-Jan-18 19:58 34.602216 -118.363676 99 7684ft 161kts
07-Jan-18 19:59 34.595986 -118.315326 99 7692ft 161kts
07-Jan-18 20:00 34.589037 -118.262443 99 7693ft 162kts
07-Jan-18 20:01 34.584231 -118.209001 91 6982ft 150kts
07-Jan-18 20:02 34.584451 -118.172676 84 4968ft 145kts
07-Jan-18 20:03 34.593054 -118.132939 65 3663ft 121kts
07-Jan-18 20:04 34.608515 -118.104403 48 2853ft 82kts
07-Jan-18 20:05 34.620926 -118.085481 52 2546ft 40kts
07-Jan-18 20:06 34.637173 -118.060668 50 3753ft 111kts
07-Jan-18 20:07 34.622301 -118.038767 170 5398ft 115kts
07-Jan-18 20:08 34.591794 -118.029655 169 7179ft 111kts
07-Jan-18 20:09 34.562429 -118.021508 172 8915ft 112kts
07-Jan-18 20:10 34.532362 -118.016760 177 10673ft 111kts
07-Jan-18 20:11 34.500786 -118.008187 168 11960ft 145kts
07-Jan-18 20:12 34.455655 -117.994930 169 11906ft 175kts
07-Jan-18 20:13 34.408724 -117.981294 169 11897ft 176kts
07-Jan-18 20:14 34.361134 -117.967427 169 11875ft 177kts
07-Jan-18 20:15 34.314069 -117.953671 169 11852ft 177kts
07-Jan-18 20:16 34.266257 -117.939646 168 11833ft 177kts
07-Jan-18 20:17 34.218444 -117.925570 168 11826ft 176kts
07-Jan-18 20:18 34.170902 -117.911515 168 11831ft 176kts
07-Jan-18 20:19 34.123446 -117.897405 168 11865ft 174kts
07-Jan-18 20:20 34.076304 -117.883131 168 11875ft 174kts
07-Jan-18 20:21 34.029636 -117.868953 168 11868ft 175kts
07-Jan-18 20:22 33.982432 -117.854561 168 11859ft 175kts
07-Jan-18 20:23 33.935492 -117.840241 169 11270ft 180kts
07-Jan-18 20:24 33.897443 -117.813056 101 6443ft 191kts
07-Jan-18 20:25 33.889237 -117.762159 99 3596ft 139kts
07-Jan-18 20:26 33.882062 -117.717305 99 3250ft 142kts
07-Jan-18 20:27 33.875074 -117.672565 100 3541ft 135kts
07-Jan-18 20:28 33.855025 -117.653083 225 4327ft 138kts
07-Jan-18 20:29 33.826084 -117.692964 233 3904ft 162kts
07-Jan-18 20:30 33.800188 -117.739170 241 3256ft 171kts
07-Jan-18 20:31 33.778609 -117.787181 227 2648ft 168kts
07-Jan-18 20:32 33.744674 -117.825042 213 1620ft 174kts
07-Jan-18 20:33 33.702828 -117.851817 208 529ft 175kts
07-Jan-18 20:34 33.680126 -117.866023 208 63ft 68kts
07-Jan-18 20:35 33.675900 -117.869682 294 59ft 0kts

Navigation Log

Ident Type
Flight plan parsing failed, navigation log unavailable